Hazlerigg, United Kingdom
Current Conditions -  °F | °C
As of 12:20 PM on Thursday 23 Oct 2014 (Local Time) from EGNT Reporting Station
Few Clouds Few Clouds  
Wind Chill: 61°   Ceiling: Unl
Heat Index: 61°   Visibility: 6mi
Dew Point: 48°   Wind: 15mph
Humidity: 63%   Direction: 250°WSW
Pressure: 29.85"   Gusts: NA
Location:  55.04°N, 1.64°W
Report Text: EGNT 231120Z 25013KT 9999 FEW030 16/09 Q1011
Loading
Personal Weather Stations






























Interactive Weather Map
Tropical Storm Tracking
New forecast layout! Learn more

10-Day Weather Forecast

Advertisements
Track Severe Weather on mobile